createdAt,value
2018-03-21T00:00:14.527Z,5.95
2018-03-21T00:02:41.995Z,6.32
2018-03-21T00:05:09.476Z,6.40
2018-03-21T00:07:36.950Z,6.85
2018-03-21T00:10:04.423Z,7.95
2018-03-21T00:12:32.678Z,7.32
2018-03-21T00:15:00.154Z,6.78
2018-03-21T00:17:28.384Z,7.05
2018-03-21T00:19:55.856Z,6.40
2018-03-21T00:22:23.321Z,6.90
2018-03-21T00:24:50.797Z,5.50
2018-03-21T00:27:19.032Z,5.30
2018-03-21T00:29:46.516Z,6.87
2018-03-21T00:32:13.982Z,7.35
2018-03-21T00:34:41.460Z,7.00
2018-03-21T00:37:09.709Z,7.28
2018-03-21T00:39:37.185Z,5.85
2018-03-21T00:42:05.410Z,6.30
2018-03-21T00:44:32.902Z,6.07
2018-03-21T00:47:00.362Z,7.28
2018-03-21T00:49:27.834Z,6.10
2018-03-21T00:51:56.071Z,5.95
2018-03-21T00:54:23.539Z,5.60
2018-03-21T00:56:51.015Z,5.70
2018-03-21T00:59:18.487Z,6.00
2018-03-21T01:01:46.726Z,6.65
2018-03-21T01:04:14.207Z,5.60
2018-03-21T01:06:41.680Z,5.40
2018-03-21T01:09:09.919Z,5.95
2018-03-21T01:11:37.399Z,6.53
2018-03-21T01:14:05.641Z,5.80
2018-03-21T01:16:33.112Z,5.40
2018-03-21T01:19:00.578Z,5.30
2018-03-21T01:21:28.046Z,5.85
2018-03-21T01:23:55.529Z,6.82
2018-03-21T01:26:23.026Z,4.65
2018-03-21T01:28:50.486Z,5.18
2018-03-21T01:31:17.957Z,7.05
2018-03-21T01:33:45.422Z,5.55
2018-03-21T01:36:12.899Z,6.68
2018-03-21T01:38:41.139Z,4.85
2018-03-21T01:41:08.611Z,4.87
2018-03-21T01:43:36.070Z,4.95
2018-03-21T01:46:03.545Z,5.30
2018-03-21T01:51:24.987Z,4.50
2018-03-21T01:53:53.218Z,5.43
2018-03-21T01:56:20.690Z,5.82
2018-03-21T01:58:48.163Z,4.80
2018-03-21T02:01:15.640Z,4.12
2018-03-21T02:03:43.873Z,3.90
2018-03-21T02:06:11.347Z,4.68
2018-03-21T02:08:38.822Z,5.10
2018-03-21T02:11:07.071Z,4.72
2018-03-21T02:13:34.527Z,3.85
2018-03-21T02:16:01.998Z,4.53
2018-03-21T02:18:29.467Z,4.28
2018-03-21T02:20:56.938Z,3.58
2018-03-21T02:23:25.172Z,4.05
2018-03-21T02:25:52.647Z,3.87
2018-03-21T02:28:20.120Z,4.57
2018-03-21T02:30:47.601Z,4.85
2018-03-21T02:33:15.067Z,4.07
2018-03-21T02:35:42.547Z,4.90
2018-03-21T02:38:10.022Z,4.30
2018-03-21T02:40:37.497Z,3.65
2018-03-21T02:43:04.964Z,5.15
2018-03-21T02:45:32.431Z,4.25
2018-03-21T02:48:00.658Z,3.70
2018-03-21T02:50:28.142Z,4.07
2018-03-21T02:52:55.601Z,3.53
2018-03-21T02:55:23.070Z,3.20
2018-03-21T02:57:50.524Z,3.50
2018-03-21T03:00:18.002Z,4.10
2018-03-21T03:02:46.232Z,3.40
2018-03-21T03:05:13.707Z,3.92
2018-03-21T03:07:41.187Z,3.45
2018-03-21T03:10:09.414Z,3.92
2018-03-21T03:12:36.883Z,5.78
2018-03-21T03:15:04.347Z,4.12
2018-03-21T03:17:31.819Z,5.40
2018-03-21T03:19:59.283Z,4.40
2018-03-21T03:22:26.764Z,4.00
2018-03-21T03:24:54.999Z,4.45
2018-03-21T03:30:03.063Z,4.10
2018-03-21T03:32:31.294Z,3.95
2018-03-21T03:34:58.767Z,4.00
2018-03-21T03:37:26.248Z,3.75
2018-03-21T03:39:54.478Z,3.95
2018-03-21T03:42:21.952Z,4.65
2018-03-21T03:44:49.411Z,4.20
2018-03-21T03:47:16.891Z,3.72
2018-03-21T03:49:45.126Z,4.32
2018-03-21T03:52:12.594Z,4.37
2018-03-21T03:54:40.071Z,4.40
2018-03-21T03:57:07.546Z,4.25
2018-03-21T03:59:35.786Z,5.05
2018-03-21T04:02:03.253Z,5.03
2018-03-21T04:04:30.717Z,3.47
2018-03-21T04:06:58.203Z,4.07
2018-03-21T04:09:25.670Z,3.60
2018-03-21T04:11:53.153Z,3.47
2018-03-21T04:14:20.631Z,4.35
2018-03-21T04:16:48.096Z,4.60
2018-03-21T04:19:15.560Z,4.57
2018-03-21T04:21:43.032Z,4.62
2018-03-21T04:24:11.264Z,4.75
2018-03-21T04:26:38.743Z,4.10
2018-03-21T04:29:06.198Z,4.10
2018-03-21T04:31:33.678Z,4.72
2018-03-21T04:34:01.914Z,4.20
2018-03-21T04:36:29.382Z,4.05
2018-03-21T04:38:56.850Z,4.32
2018-03-21T04:41:24.330Z,4.93
2018-03-21T04:43:52.558Z,4.47
2018-03-21T04:46:20.031Z,5.43
2018-03-21T04:48:47.499Z,3.90
2018-03-21T04:51:14.981Z,6.43
2018-03-21T04:53:43.223Z,5.30
2018-03-21T04:56:10.702Z,4.87
2018-03-21T04:58:38.170Z,5.03
2018-03-21T05:01:06.420Z,4.97
2018-03-21T05:03:33.883Z,5.07
2018-03-21T05:06:01.357Z,4.75
2018-03-21T05:08:28.814Z,5.05
2018-03-21T05:10:56.279Z,5.10
2018-03-21T05:13:24.521Z,5.60
2018-03-21T05:15:51.978Z,4.60
2018-03-21T05:18:19.450Z,4.68
2018-03-21T05:20:46.918Z,5.72
2018-03-21T05:23:14.386Z,4.95
2018-03-21T05:25:42.613Z,4.40
2018-03-21T05:28:10.097Z,4.20
2018-03-21T05:30:37.558Z,5.18
2018-03-21T05:33:05.035Z,5.80
2018-03-21T05:35:33.272Z,3.70
2018-03-21T05:38:00.734Z,4.00
2018-03-21T05:40:28.214Z,4.65
2018-03-21T05:42:55.692Z,4.20
2018-03-21T05:45:23.917Z,4.25
2018-03-21T05:47:51.389Z,4.78
2018-03-21T05:50:18.859Z,3.90
2018-03-21T05:52:46.335Z,5.07
2018-03-21T05:55:14.570Z,3.42
2018-03-21T05:57:42.808Z,4.60
2018-03-21T06:00:10.262Z,4.15
2018-03-21T06:02:37.738Z,6.15
2018-03-21T06:05:05.212Z,4.50
2018-03-21T06:07:32.684Z,5.25
2018-03-21T06:10:00.151Z,4.25
2018-03-21T06:12:27.626Z,4.60
2018-03-21T06:14:55.083Z,5.55
2018-03-21T06:17:22.550Z,5.25
2018-03-21T06:19:50.783Z,4.18
2018-03-21T06:22:18.255Z,4.85
2018-03-21T06:24:45.723Z,4.53
2018-03-21T06:27:13.194Z,4.20
2018-03-21T06:29:41.434Z,4.90
2018-03-21T06:32:08.906Z,5.15
2018-03-21T06:34:36.370Z,4.80
2018-03-21T06:37:03.842Z,4.95
2018-03-21T06:39:32.072Z,4.80
2018-03-21T06:41:59.555Z,4.70
2018-03-21T06:44:27.010Z,4.07
2018-03-21T06:46:54.487Z,3.58
2018-03-21T06:49:22.724Z,4.72
2018-03-21T06:51:50.194Z,6.37
2018-03-21T06:54:17.663Z,4.47
2018-03-21T06:56:45.150Z,5.03
2018-03-21T06:59:15.221Z,4.65
2018-03-21T07:01:42.694Z,4.35
2018-03-21T07:04:10.162Z,3.70
2018-03-21T07:06:37.623Z,3.80
2018-03-21T07:09:05.875Z,4.90
2018-03-21T07:11:33.335Z,3.97
2018-03-21T07:14:12.835Z,3.45
2018-03-21T07:16:42.259Z,3.62
2018-03-21T07:19:09.735Z,3.58
2018-03-21T07:21:37.964Z,4.00
2018-03-21T07:24:05.435Z,3.85
2018-03-21T07:26:32.907Z,3.50
2018-03-21T07:29:00.391Z,3.62
2018-03-21T07:31:27.858Z,2.80
2018-03-21T07:33:55.343Z,3.22
2018-03-21T07:36:22.814Z,3.25
2018-03-21T07:38:50.294Z,2.95
2018-03-21T07:41:17.770Z,3.65
2018-03-21T07:43:45.256Z,3.17
2018-03-21T07:46:12.747Z,2.92
2018-03-21T07:48:40.219Z,3.08
2018-03-21T07:51:07.703Z,3.05
2018-03-21T07:53:35.182Z,3.50
2018-03-21T07:56:02.659Z,3.22
2018-03-21T07:58:30.900Z,3.50
2018-03-21T08:00:58.363Z,3.57
2018-03-21T08:03:25.835Z,4.00
2018-03-21T08:05:53.295Z,4.07
2018-03-21T08:08:20.800Z,4.03
2018-03-21T08:10:49.002Z,3.50
2018-03-21T08:13:16.468Z,3.20
2018-03-21T08:15:43.931Z,2.37
2018-03-21T08:18:11.409Z,2.70
2018-03-21T08:20:38.874Z,2.70
2018-03-21T08:23:07.107Z,3.53
2018-03-21T08:25:34.575Z,2.57
2018-03-21T08:28:02.062Z,3.03
2018-03-21T08:30:29.501Z,3.20
2018-03-21T08:32:56.974Z,3.80
2018-03-21T08:35:24.438Z,2.57
2018-03-21T08:37:52.675Z,3.47
2018-03-21T08:40:20.148Z,3.20
2018-03-21T08:42:47.625Z,3.20
2018-03-21T08:45:15.084Z,3.20
2018-03-21T08:47:43.711Z,1.83
2018-03-21T08:50:11.392Z,2.67
2018-03-21T08:52:38.862Z,2.70
2018-03-21T08:55:06.327Z,2.57
2018-03-21T08:57:33.796Z,2.37
2018-03-21T09:00:01.254Z,1.90
2018-03-21T09:02:28.719Z,2.10
2018-03-21T09:04:56.178Z,1.90
2018-03-21T09:07:24.472Z,2.03
2018-03-21T09:09:51.899Z,2.60
2018-03-21T09:12:19.364Z,2.00
2018-03-21T09:14:46.823Z,2.30
2018-03-21T09:17:14.289Z,2.60
2018-03-21T09:19:42.517Z,2.00
2018-03-21T09:22:09.980Z,2.77
2018-03-21T09:24:37.462Z,2.00
2018-03-21T09:27:04.927Z,2.80
2018-03-21T09:29:32.394Z,2.60
2018-03-21T09:32:00.671Z,2.57
2018-03-21T09:34:28.103Z,2.60
2018-03-21T09:36:55.572Z,2.20
2018-03-21T09:39:23.035Z,2.30
2018-03-21T09:41:50.490Z,2.67
2018-03-21T09:44:17.959Z,2.30
2018-03-21T09:46:45.414Z,2.40
2018-03-21T09:49:12.886Z,2.00
2018-03-21T09:51:41.125Z,2.40
2018-03-21T09:54:08.589Z,3.07
2018-03-21T09:56:36.126Z,2.43
2018-03-21T09:59:03.589Z,2.77
2018-03-21T10:01:31.055Z,2.77
2018-03-21T10:03:58.518Z,1.93
2018-03-21T10:06:25.979Z,2.43
2018-03-21T10:08:53.447Z,2.27
2018-03-21T10:11:20.905Z,2.30
2018-03-21T10:13:48.370Z,3.00
2018-03-21T10:16:15.831Z,2.50
2018-03-21T10:18:43.310Z,3.20
2018-03-21T10:21:11.532Z,2.70
2018-03-21T10:23:38.998Z,2.67
2018-03-21T10:26:06.467Z,3.50
2018-03-21T10:28:33.943Z,2.53
2018-03-21T10:31:02.168Z,2.97
2018-03-21T10:33:29.634Z,2.43
2018-03-21T10:35:57.095Z,3.63
2018-03-21T10:38:24.570Z,4.20
2018-03-21T10:40:52.038Z,2.87
2018-03-21T10:43:19.507Z,2.90
2018-03-21T10:45:46.966Z,2.83
2018-03-21T10:48:14.438Z,3.60
2018-03-21T10:50:42.666Z,2.63
2018-03-21T10:53:10.135Z,2.60
2018-03-21T10:55:37.605Z,2.37
2018-03-21T10:58:05.068Z,3.57
2018-03-21T11:00:32.535Z,2.70
2018-03-21T11:03:02.552Z,2.70
2018-03-21T11:05:30.019Z,3.03
2018-03-21T11:07:58.254Z,2.60
2018-03-21T11:10:25.723Z,2.83
2018-03-21T11:12:53.195Z,3.00
2018-03-21T11:15:20.670Z,3.67
2018-03-21T11:17:48.896Z,3.43
2018-03-21T11:20:16.372Z,3.47
2018-03-21T11:22:43.833Z,4.03
2018-03-21T11:25:11.301Z,3.13
2018-03-21T11:27:38.759Z,2.87
2018-03-21T11:30:06.222Z,2.90
2018-03-21T11:32:33.685Z,3.93
2018-03-21T11:35:01.150Z,3.33
2018-03-21T11:37:29.379Z,2.83
2018-03-21T11:39:56.858Z,3.20
2018-03-21T11:42:24.584Z,3.00
2018-03-21T11:44:52.047Z,3.00
2018-03-21T11:47:19.504Z,3.10
2018-03-21T11:49:46.975Z,4.43
2018-03-21T11:52:14.553Z,2.77
2018-03-21T11:54:45.995Z,3.00
2018-03-21T11:57:13.451Z,3.97
2018-03-21T11:59:40.927Z,3.07
2018-03-21T12:02:08.382Z,2.80
2018-03-21T12:04:35.858Z,2.70
2018-03-21T12:07:03.321Z,3.23
2018-03-21T12:09:31.576Z,3.77
2018-03-21T12:11:59.133Z,3.20
2018-03-21T12:14:26.600Z,3.13
2018-03-21T12:16:54.054Z,3.40
2018-03-21T12:19:21.615Z,3.57
2018-03-21T12:21:49.088Z,2.90
2018-03-21T12:24:17.446Z,3.47
2018-03-21T12:26:45.902Z,3.30
2018-03-21T12:29:13.368Z,3.00
2018-03-21T12:31:40.854Z,3.20
2018-03-21T12:34:08.411Z,3.00
2018-03-21T12:36:35.868Z,2.90
2018-03-21T12:39:03.382Z,2.60
2018-03-21T12:41:31.566Z,2.97
2018-03-21T12:43:59.037Z,2.53
2018-03-21T12:46:26.498Z,3.00
2018-03-21T12:48:53.966Z,2.80
2018-03-21T12:51:21.450Z,2.20
2018-03-21T12:53:48.923Z,3.30
2018-03-21T12:56:17.224Z,1.60
2018-03-21T12:58:44.615Z,2.40
2018-03-21T13:01:12.085Z,1.60
2018-03-21T13:03:39.536Z,1.40
2018-03-21T13:06:07.003Z,1.50
2018-03-21T13:08:34.474Z,1.57
2018-03-21T13:11:02.708Z,2.23
2018-03-21T13:13:30.167Z,1.90
2018-03-21T13:15:57.638Z,1.83
2018-03-21T13:18:25.113Z,1.70
2018-03-21T13:20:52.639Z,1.87
2018-03-21T13:23:20.101Z,1.63
2018-03-21T13:25:47.566Z,1.97
2018-03-21T13:28:15.026Z,1.27
2018-03-21T13:30:42.494Z,2.00
2018-03-21T13:33:09.964Z,1.93
2018-03-21T13:35:37.426Z,2.10
2018-03-21T13:38:04.882Z,1.50
2018-03-21T13:40:32.351Z,1.80
2018-03-21T13:43:00.577Z,2.23
2018-03-21T13:45:28.055Z,1.50
2018-03-21T13:47:55.506Z,3.30
2018-03-21T13:50:22.997Z,1.50
2018-03-21T13:52:50.442Z,2.23
2018-03-21T13:55:17.910Z,1.80
2018-03-21T13:57:45.404Z,1.70
2018-03-21T14:00:12.846Z,2.40
2018-03-21T14:02:41.071Z,1.97
2018-03-21T14:05:08.551Z,2.37
2018-03-21T14:07:36.283Z,2.30
2018-03-21T14:10:03.749Z,2.20
2018-03-21T14:12:31.211Z,2.07
2018-03-21T14:14:58.683Z,2.30
2018-03-21T14:17:26.142Z,2.77
2018-03-21T14:19:53.624Z,2.50
2018-03-21T14:22:21.108Z,2.20
2018-03-21T14:24:49.310Z,2.50
2018-03-21T14:27:16.778Z,2.20
2018-03-21T14:29:44.262Z,2.50
2018-03-21T14:32:11.726Z,2.40
2018-03-21T14:34:39.974Z,2.73
2018-03-21T14:37:08.279Z,2.40
2018-03-21T14:39:35.751Z,2.07
2018-03-21T14:42:03.978Z,2.30
2018-03-21T14:44:31.450Z,2.30
2018-03-21T14:46:58.911Z,2.83
2018-03-21T14:49:26.378Z,2.87
2018-03-21T14:51:53.836Z,2.70
2018-03-21T14:54:21.290Z,2.70
2018-03-21T14:56:48.754Z,2.50
2018-03-21T14:59:16.216Z,2.87
2018-03-21T15:01:43.699Z,2.80
2018-03-21T15:04:11.922Z,2.90
2018-03-21T15:06:39.399Z,3.10
2018-03-21T15:09:06.856Z,3.40
2018-03-21T15:11:34.318Z,4.13
2018-03-21T15:14:01.775Z,2.87
2018-03-21T15:16:29.244Z,3.40
2018-03-21T15:18:56.706Z,3.30
2018-03-21T15:21:24.182Z,2.30
2018-03-21T15:23:52.399Z,3.53
2018-03-21T15:26:19.890Z,3.03
2018-03-21T15:28:47.345Z,2.77
2018-03-21T15:31:14.813Z,2.47
2018-03-21T15:33:42.266Z,2.90
2018-03-21T15:36:09.730Z,3.03
2018-03-21T15:38:37.190Z,3.90
2018-03-21T15:41:05.430Z,3.33
2018-03-21T15:43:32.892Z,2.83
2018-03-21T15:46:00.360Z,2.83
2018-03-21T15:48:27.822Z,2.13
2018-03-21T15:50:55.296Z,2.57
2018-03-21T15:53:22.760Z,2.90
2018-03-21T15:55:51.002Z,2.30
2018-03-21T15:58:18.457Z,2.90
2018-03-21T16:00:45.919Z,2.90
2018-03-21T16:03:13.386Z,3.23
2018-03-21T16:05:40.852Z,2.50
2018-03-21T16:08:08.315Z,2.67
2018-03-21T16:10:35.784Z,2.90
2018-03-21T16:13:04.012Z,2.77
2018-03-21T16:15:31.487Z,3.63
2018-03-21T16:17:58.952Z,3.60
2018-03-21T16:20:26.420Z,2.77
2018-03-21T16:22:53.885Z,3.53
2018-03-21T16:25:21.357Z,4.07
2018-03-21T16:27:49.578Z,3.70
2018-03-21T16:30:17.046Z,3.90
2018-03-21T16:32:44.508Z,4.53
2018-03-21T16:35:11.976Z,3.97
2018-03-21T16:37:39.441Z,4.77
2018-03-21T16:40:06.920Z,4.87
2018-03-21T16:42:35.146Z,4.87
2018-03-21T16:45:02.616Z,5.20
2018-03-21T16:47:30.078Z,6.00
2018-03-21T16:49:57.554Z,5.47
2018-03-21T16:52:25.050Z,5.40
2018-03-21T16:54:52.516Z,5.27
2018-03-21T16:57:19.995Z,6.10
2018-03-21T16:59:47.458Z,5.40
2018-03-21T17:02:14.939Z,6.13
2018-03-21T17:04:42.398Z,5.63
2018-03-21T17:07:09.859Z,6.17
2018-03-21T17:09:37.327Z,6.60
2018-03-21T17:12:04.796Z,6.03
2018-03-21T17:17:26.906Z,7.53
2018-03-21T17:19:54.370Z,7.07
2018-03-21T17:22:21.839Z,7.40
2018-03-21T17:24:49.299Z,7.83
2018-03-21T17:27:16.774Z,8.10
2018-03-21T17:29:44.998Z,6.37
2018-03-21T17:32:12.466Z,6.10
2018-03-21T17:34:39.922Z,6.60
2018-03-21T17:37:07.396Z,6.50
2018-03-21T17:39:35.639Z,6.40
2018-03-21T17:42:03.106Z,7.60
2018-03-21T17:44:30.978Z,7.80
2018-03-21T17:46:58.440Z,7.57
2018-03-21T17:49:25.911Z,7.90
2018-03-21T17:51:53.386Z,7.50
2018-03-21T17:54:20.842Z,8.10
2018-03-21T17:56:48.324Z,7.00
2018-03-21T17:59:16.556Z,6.00
2018-03-21T18:01:44.095Z,6.50
2018-03-21T18:04:11.554Z,6.83
2018-03-21T18:06:39.027Z,5.50
2018-03-21T18:09:06.486Z,6.73
2018-03-21T18:11:33.961Z,6.23
2018-03-21T18:14:03.382Z,6.97
2018-03-21T18:16:30.853Z,6.10
2018-03-21T18:18:59.080Z,7.40
2018-03-21T18:21:26.563Z,6.40
2018-03-21T18:23:54.023Z,6.30
2018-03-21T18:26:21.497Z,5.33
2018-03-21T18:28:49.723Z,5.20
2018-03-21T18:31:17.190Z,6.07
2018-03-21T18:33:45.419Z,5.63
2018-03-21T18:36:13.653Z,6.80
2018-03-21T18:38:41.122Z,6.47
2018-03-21T18:41:08.600Z,6.97
2018-03-21T18:43:36.835Z,6.90
2018-03-21T18:46:04.307Z,7.37
2018-03-21T18:48:31.780Z,6.23
2018-03-21T18:50:59.256Z,5.60
2018-03-21T18:53:27.483Z,8.40
2018-03-21T18:55:54.960Z,7.00
2018-03-21T18:58:22.418Z,6.20
2018-03-21T19:00:49.895Z,6.60
2018-03-21T19:03:17.408Z,6.57
2018-03-21T19:05:45.599Z,6.97
2018-03-21T19:08:13.062Z,7.17
2018-03-21T19:10:40.527Z,7.60
2018-03-21T19:13:08.001Z,7.10
2018-03-21T19:18:28.259Z,7.53
2018-03-21T19:20:55.731Z,7.80
2018-03-21T19:23:23.203Z,7.97
2018-03-21T19:25:50.666Z,7.67
2018-03-21T19:28:18.135Z,7.70
2018-03-21T19:30:45.598Z,7.57
2018-03-21T19:33:13.072Z,8.07
2018-03-21T19:35:41.303Z,6.93
2018-03-21T19:38:08.775Z,7.50
2018-03-21T19:40:36.242Z,6.97
2018-03-21T19:43:03.719Z,6.97
2018-03-21T19:45:31.947Z,8.00
2018-03-21T19:47:59.425Z,7.27
2018-03-21T19:50:26.886Z,7.40
2018-03-21T19:52:54.357Z,6.57
2018-03-21T19:55:21.820Z,6.80
2018-03-21T19:57:49.287Z,7.10
2018-03-21T20:00:17.510Z,7.37
2018-03-21T20:02:45.004Z,7.30
2018-03-21T20:05:12.825Z,7.10
2018-03-21T20:07:40.303Z,7.50
2018-03-21T20:10:07.767Z,6.23
2018-03-21T20:12:35.253Z,7.27
2018-03-21T20:15:02.711Z,6.90
2018-03-21T20:17:30.186Z,7.53
2018-03-21T20:19:58.415Z,8.60
2018-03-21T20:22:25.882Z,7.50
2018-03-21T20:24:53.400Z,8.67
2018-03-21T20:27:20.829Z,7.73
2018-03-21T20:29:49.067Z,7.63
2018-03-21T20:32:16.534Z,9.17
2018-03-21T20:34:43.990Z,7.87
2018-03-21T20:37:11.463Z,8.23
2018-03-21T20:39:38.922Z,7.33
2018-03-21T20:42:06.390Z,8.57
2018-03-21T20:44:34.620Z,6.97
2018-03-21T20:47:02.086Z,7.60
2018-03-21T20:49:29.556Z,7.67
2018-03-21T20:51:57.030Z,7.30
2018-03-21T20:54:24.526Z,7.50
2018-03-21T20:56:52.005Z,8.50
2018-03-21T20:59:19.463Z,8.80
2018-03-21T21:01:46.938Z,8.30
2018-03-21T21:04:14.403Z,7.43
2018-03-21T21:06:41.874Z,7.90
2018-03-21T21:09:09.334Z,6.90
2018-03-21T21:11:36.826Z,6.80
2018-03-21T21:14:04.291Z,7.83
2018-03-21T21:16:31.755Z,8.30
2018-03-21T21:18:59.219Z,8.03
2018-03-21T21:21:26.678Z,7.70
2018-03-21T21:23:54.164Z,8.60
2018-03-21T21:26:21.630Z,8.00
2018-03-21T21:28:49.095Z,8.87
2018-03-21T21:31:16.564Z,8.13
2018-03-21T21:33:44.034Z,8.57
2018-03-21T21:36:12.270Z,10.23
2018-03-21T21:38:39.792Z,9.17
2018-03-21T21:41:07.199Z,8.77
2018-03-21T21:43:34.673Z,9.77
2018-03-21T21:46:02.138Z,10.20
2018-03-21T21:48:30.378Z,10.10
2018-03-21T21:50:57.838Z,9.30
2018-03-21T21:53:25.317Z,8.90
2018-03-21T21:55:52.772Z,8.80
2018-03-21T21:58:20.274Z,8.83
2018-03-21T22:00:47.735Z,9.97
2018-03-21T22:03:15.207Z,9.87
2018-03-21T22:05:42.676Z,10.20
2018-03-21T22:08:10.147Z,9.30
2018-03-21T22:10:37.627Z,10.20
2018-03-21T22:13:05.095Z,9.70
2018-03-21T22:15:33.318Z,10.93
2018-03-21T22:18:00.798Z,9.23
2018-03-21T22:20:28.267Z,9.90
2018-03-21T22:22:55.746Z,9.77
2018-03-21T22:25:23.979Z,10.40
2018-03-21T22:27:51.458Z,11.50
2018-03-21T22:30:18.919Z,10.70
2018-03-21T22:32:46.399Z,11.57
2018-03-21T22:35:14.636Z,12.10
2018-03-21T22:37:42.107Z,11.80
2018-03-21T22:40:09.572Z,13.33
2018-03-21T22:42:37.052Z,13.97
2018-03-21T22:45:05.285Z,14.43
2018-03-21T22:47:32.754Z,15.30
2018-03-21T22:50:00.219Z,15.53
2018-03-21T22:52:27.695Z,14.40
2018-03-21T22:54:55.154Z,15.10
2018-03-21T22:57:23.403Z,14.80
2018-03-21T22:59:50.871Z,15.43
2018-03-21T23:02:18.346Z,17.60
2018-03-21T23:04:46.579Z,17.40
2018-03-21T23:07:14.055Z,17.60
2018-03-21T23:09:41.528Z,16.70
2018-03-21T23:12:09.006Z,17.60
2018-03-21T23:14:37.283Z,18.27
2018-03-21T23:17:04.764Z,19.50
2018-03-21T23:19:32.191Z,18.63
2018-03-21T23:22:00.431Z,18.40
2018-03-21T23:24:27.908Z,20.47
2018-03-21T23:26:55.375Z,19.40
2018-03-21T23:29:22.850Z,21.50
2018-03-21T23:31:51.085Z,23.80
2018-03-21T23:34:18.558Z,21.30
2018-03-21T23:36:46.027Z,21.87
2018-03-21T23:39:13.506Z,22.13
2018-03-21T23:41:41.740Z,24.50
2018-03-21T23:44:09.223Z,24.07
2018-03-21T23:46:36.690Z,23.10
2018-03-21T23:49:04.932Z,22.50
2018-03-21T23:51:32.412Z,23.13
2018-03-21T23:53:59.900Z,24.43
2018-03-21T23:56:27.370Z,25.37
2018-03-21T23:58:54.848Z,24.60
